Time;durP1;ratioP1;P1;durP2;ratioP2;P2;SDS_P1;SDS_P2;PMS_P1;PMS_P2;Temp;Humidity;BMP_temperature;BMP_pressure;BME280_temperature;BME280_humidity;BME280_pressure;Samples;Min_cycle;Max_cycle;Signal;HPM_P1;HPM_P2
2022/08/21 00:02:54;;;;;;;1.67;0.68;;;25.60;48.90;;;;;;6014144;29;20038;-72
2022/08/21 00:05:55;;;;;;;1.20;0.60;;;25.60;49.00;;;;;;6007952;29;20484;-73
2022/08/21 00:08:56;;;;;;;0.70;0.70;;;25.60;49.10;;;;;;6002471;29;20046;-73
2022/08/21 00:11:57;;;;;;;0.93;0.60;;;25.50;49.10;;;;;;6007943;29;20050;-73
2022/08/21 00:14:59;;;;;;;0.60;0.50;;;25.50;49.20;;;;;;6009025;29;20065;-73
2022/08/21 00:18:00;;;;;;;5.07;0.50;;;25.50;49.30;;;;;;6008873;29;20552;-73
2022/08/21 00:21:01;;;;;;;10.15;0.80;;;25.40;49.40;;;;;;6007175;29;20079;-73
2022/08/21 00:24:02;;;;;;;1.02;0.70;;;25.40;49.50;;;;;;6016092;29;20117;-73
2022/08/21 00:27:04;;;;;;;3.22;0.77;;;25.40;49.70;;;;;;5997200;29;20042;-73
2022/08/21 00:30:06;;;;;;;0.85;0.70;;;25.40;50.00;;;;;;6008479;29;20042;-73
2022/08/21 00:33:09;;;;;;;1.67;0.73;;;25.30;50.20;;;;;;5998041;29;20134;-73
2022/08/21 00:36:11;;;;;;;1.27;0.70;;;25.30;50.40;;;;;;6008928;29;20038;-73
2022/08/21 00:39:14;;;;;;;0.55;0.52;;;25.30;50.80;;;;;;6002174;29;20700;-73
2022/08/21 00:42:16;;;;;;;1.13;0.70;;;25.20;50.90;;;;;;6008471;29;20077;-73
2022/08/21 00:45:17;;;;;;;0.68;0.65;;;25.10;51.00;;;;;;5992524;29;20137;-73
2022/08/21 00:48:18;;;;;;;1.27;0.90;;;25.10;51.20;;;;;;5976623;29;20038;-73
2022/08/21 00:51:37;;;;;;;8.15;1.00;;;25.00;51.20;;;;;;6007977;29;20038;-73
2022/08/21 00:54:40;;;;;;;2.60;0.93;;;25.00;51.40;;;;;;6008587;29;20038;-73
2022/08/21 00:57:47;;;;;;;2.47;1.00;;;25.00;51.50;;;;;;6008604;29;20033;-73
2022/08/21 01:00:49;;;;;;;1.42;0.70;;;25.00;51.50;;;;;;5999574;29;20085;-73
2022/08/21 01:03:51;;;;;;;6.40;0.80;;;25.00;51.60;;;;;;5995216;29;20049;-74
2022/08/21 01:06:53;;;;;;;1.00;0.88;;;24.90;51.50;;;;;;5997541;29;20053;-73
2022/08/21 01:09:54;;;;;;;1.10;0.70;;;25.00;51.50;;;;;;5990877;29;20055;-73
2022/08/21 01:12:56;;;;;;;0.63;0.60;;;24.90;51.40;;;;;;5990027;29;20078;-73
2022/08/21 01:16:00;;;;;;;1.98;0.90;;;24.90;51.40;;;;;;6008125;29;20053;-74
2022/08/21 01:19:02;;;;;;;0.60;0.60;;;24.90;51.40;;;;;;6012533;29;20045;-74
2022/08/21 01:22:04;;;;;;;0.80;0.70;;;24.90;51.50;;;;;;6012043;29;20038;-73
2022/08/21 01:25:07;;;;;;;1.23;0.70;;;24.90;51.60;;;;;;5999077;29;20069;-74
2022/08/21 01:28:13;;;;;;;2.13;1.00;;;24.90;51.70;;;;;;6007878;29;20687;-74
2022/08/21 01:31:17;;;;;;;0.85;0.60;;;24.90;51.90;;;;;;6016292;29;20041;-74
2022/08/21 01:34:18;;;;;;;0.70;0.60;;;24.90;52.20;;;;;;6010764;29;20546;-74
2022/08/21 01:37:21;;;;;;;10.13;0.93;;;24.80;52.40;;;;;;6011134;29;20052;-73
2022/08/21 01:40:22;;;;;;;0.90;0.70;;;24.80;52.60;;;;;;6009896;29;20042;-74
2022/08/21 01:43:24;;;;;;;1.33;0.70;;;24.70;52.60;;;;;;6011211;29;20158;-74
2022/08/21 01:46:25;;;;;;;1.65;0.90;;;24.70;52.70;;;;;;6010382;29;20484;-74
2022/08/21 01:49:27;;;;;;;0.93;0.77;;;24.70;52.80;;;;;;6011981;29;20046;-74
2022/08/21 01:52:29;;;;;;;0.75;0.75;;;24.70;52.80;;;;;;6010018;29;20046;-74
2022/08/21 01:55:30;;;;;;;1.42;0.70;;;24.70;52.90;;;;;;6011786;29;20042;-74
2022/08/21 01:58:31;;;;;;;1.00;0.82;;;24.60;53.00;;;;;;6010757;29;20102;-74
2022/08/21 02:01:32;;;;;;;3.70;1.05;;;24.60;53.30;;;;;;6016671;29;20080;-73
2022/08/21 02:04:33;;;;;;;1.20;1.00;;;24.50;53.10;;;;;;6023846;29;20045;-73
2022/08/21 02:07:43;;;;;;;2.83;0.77;;;24.50;52.90;;;;;;6005933;29;20057;-73
2022/08/21 02:10:46;;;;;;;1.23;1.00;;;24.50;52.80;;;;;;6009188;29;20036;-73
2022/08/21 02:13:47;;;;;;;0.80;0.80;;;24.40;52.90;;;;;;6009056;29;20065;-74
2022/08/21 02:16:48;;;;;;;0.65;0.60;;;24.40;52.90;;;;;;6007697;29;20075;-73
2022/08/21 02:19:50;;;;;;;4.07;0.75;;;24.50;52.90;;;;;;5995014;29;20038;-73
2022/08/21 02:22:51;;;;;;;0.75;0.75;;;24.40;52.90;;;;;;6010626;29;20372;-72
2022/08/21 02:26:03;;;;;;;0.73;0.73;;;24.40;52.90;;;;;;6012582;29;20049;-75
2022/08/21 02:29:05;;;;;;;6.18;1.00;;;24.40;52.90;;;;;;5992171;29;20525;-74
2022/08/21 02:32:06;;;;;;;1.13;0.80;;;24.30;52.70;;;;;;5993560;29;20161;-72
2022/08/21 02:35:09;;;;;;;3.90;0.60;;;24.30;52.70;;;;;;5992684;29;20097;-75
2022/08/21 02:38:13;;;;;;;0.95;0.80;;;24.30;52.70;;;;;;6008918;29;20049;-79
2022/08/21 02:41:17;;;;;;;3.50;0.90;;;24.20;52.70;;;;;;6009005;29;20501;-75
2022/08/21 02:44:19;;;;;;;5.85;0.88;;;24.20;52.70;;;;;;6009201;29;20050;-75
2022/08/21 02:47:20;;;;;;;2.35;1.05;;;24.10;52.60;;;;;;6009167;29;20066;-75
2022/08/21 02:50:26;;;;;;;2.38;0.82;;;24.10;52.60;;;;;;5989604;29;20045;-76
2022/08/21 02:53:28;;;;;;;1.92;0.85;;;24.00;52.70;;;;;;6008174;29;20042;-76
2022/08/21 02:56:30;;;;;;;2.28;0.77;;;24.00;52.70;;;;;;6009092;29;20480;-76
2022/08/21 02:59:31;;;;;;;2.88;1.02;;;24.00;52.90;;;;;;5998788;29;20110;-76
2022/08/21 03:02:34;;;;;;;1.55;0.82;;;23.90;53.00;;;;;;5992526;29;20143;-75
2022/08/21 03:05:39;;;;;;;4.68;0.90;;;23.90;53.10;;;;;;6008969;29;20066;-75
2022/08/21 03:08:41;;;;;;;2.13;0.82;;;23.90;53.20;;;;;;6007286;29;20069;-73
2022/08/21 03:11:42;;;;;;;3.03;0.77;;;23.90;53.30;;;;;;6007210;29;20479;-74
2022/08/21 03:14:43;;;;;;;1.45;1.10;;;23.90;53.20;;;;;;5972020;29;20049;-73
2022/08/21 03:17:45;;;;;;;0.70;0.70;;;23.90;53.40;;;;;;5991048;29;20080;-73
2022/08/21 03:20:47;;;;;;;0.60;0.60;;;24.00;53.70;;;;;;5989168;29;20141;-73
2022/08/21 03:23:48;;;;;;;2.92;0.63;;;24.00;53.80;;;;;;6008168;29;20053;-73
2022/08/21 03:26:49;;;;;;;2.50;0.85;;;23.90;54.00;;;;;;5988649;29;20090;-72
2022/08/21 03:29:50;;;;;;;0.77;0.55;;;23.90;54.20;;;;;;6009658;29;20046;-73
2022/08/21 03:32:51;;;;;;;1.48;0.90;;;23.90;54.60;;;;;;5995589;29;20034;-73
2022/08/21 03:36:00;;;;;;;1.15;0.88;;;23.90;54.80;;;;;;5989437;29;20468;-74
2022/08/21 03:39:01;;;;;;;0.93;0.73;;;23.80;55.70;;;;;;5992391;29;20105;-75
2022/08/21 03:42:02;;;;;;;0.70;0.70;;;23.80;55.30;;;;;;5991772;29;20042;-74
2022/08/21 03:45:04;;;;;;;1.10;1.02;;;23.70;55.40;;;;;;5993487;29;20050;-74
2022/08/21 03:48:07;;;;;;;1.60;1.00;;;23.70;55.70;;;;;;5992803;29;20444;-74
2022/08/21 03:51:08;;;;;;;2.53;0.80;;;23.60;55.90;;;;;;5994006;29;20050;-74
2022/08/21 03:54:10;;;;;;;4.03;1.15;;;23.60;56.10;;;;;;5992640;29;20132;-74
2022/08/21 03:57:11;;;;;;;1.15;0.85;;;23.50;56.20;;;;;;6011429;29;20093;-75
2022/08/21 04:00:15;;;;;;;3.33;1.00;;;23.50;56.20;;;;;;6009605;29;20114;-74
2022/08/21 04:03:17;;;;;;;2.20;0.90;;;23.40;56.20;;;;;;5979274;29;20045;-74
2022/08/21 04:06:19;;;;;;;5.18;0.73;;;23.40;56.10;;;;;;5988707;29;20099;-74
2022/08/21 04:09:20;;;;;;;1.38;0.90;;;23.40;56.30;;;;;;6009502;29;20075;-74
2022/08/21 04:12:21;;;;;;;5.65;1.08;;;23.40;55.90;;;;;;5996670;29;20040;-74
2022/08/21 04:15:25;;;;;;;3.22;1.00;;;23.40;55.90;;;;;;5991985;29;20361;-74
2022/08/21 04:18:26;;;;;;;3.03;1.10;;;23.40;55.90;;;;;;6012526;29;20038;-74
2022/08/21 04:21:27;;;;;;;1.10;0.90;;;23.40;55.90;;;;;;6008973;29;20062;-74
2022/08/21 04:24:28;;;;;;;3.00;0.90;;;23.40;56.00;;;;;;5993057;29;20086;-74
2022/08/21 04:27:29;;;;;;;0.60;0.60;;;23.40;56.20;;;;;;6011083;29;20046;-73
2022/08/21 04:30:30;;;;;;;2.75;1.10;;;23.40;56.50;;;;;;5992835;29;20038;-73
2022/08/21 04:33:31;;;;;;;1.02;0.80;;;23.40;56.80;;;;;;6008303;29;20468;-73
2022/08/21 04:36:33;;;;;;;2.80;0.90;;;23.30;57.00;;;;;;5990852;29;20042;-73
2022/08/21 04:39:34;;;;;;;0.70;0.70;;;23.20;57.20;;;;;;5994051;29;20125;-75
2022/08/21 04:42:44;;;;;;;0.88;0.73;;;23.20;57.40;;;;;;5995082;29;20045;-75
2022/08/21 04:45:47;;;;;;;1.65;0.90;;;23.10;57.50;;;;;;6013665;29;20034;-73
2022/08/21 04:48:49;;;;;;;3.40;0.95;;;23.20;57.60;;;;;;5997258;29;20110;-73
2022/08/21 04:51:50;;;;;;;0.80;0.70;;;23.10;57.70;;;;;;6001661;29;20143;-76
2022/08/21 04:54:52;;;;;;;6.65;2.03;;;23.10;57.80;;;;;;6011308;29;20380;-73
2022/08/21 04:57:54;;;;;;;5.00;0.93;;;23.10;58.00;;;;;;5996706;29;20042;-73
2022/08/21 05:00:57;;;;;;;0.98;0.88;;;23.10;58.20;;;;;;6013430;29;20110;-73
2022/08/21 05:04:00;;;;;;;1.63;0.90;;;23.00;58.30;;;;;;6012715;29;20065;-75
2022/08/21 05:07:05;;;;;;;3.90;1.00;;;23.00;58.40;;;;;;6012698;29;20054;-73
2022/08/21 05:10:08;;;;;;;1.00;0.90;;;23.00;58.40;;;;;;6008694;29;20046;-73
2022/08/21 05:13:09;;;;;;;5.38;1.00;;;23.00;58.20;;;;;;6011261;29;20077;-75
2022/08/21 05:16:11;;;;;;;2.78;0.80;;;23.10;58.20;;;;;;5996499;29;20065;-73
2022/08/21 05:19:12;;;;;;;9.82;1.02;;;23.00;58.10;;;;;;6012840;29;20049;-74
2022/08/21 05:22:24;;;;;;;1.75;1.02;;;23.10;58.20;;;;;;6010995;29;20053;-74
2022/08/21 05:25:25;;;;;;;1.80;0.80;;;23.10;58.10;;;;;;6012854;29;20046;-74
2022/08/21 05:28:26;;;;;;;0.95;0.80;;;23.20;58.10;;;;;;5995892;29;20049;-74
2022/08/21 05:31:27;;;;;;;0.93;0.82;;;23.10;57.90;;;;;;6010932;29;20041;-74
2022/08/21 05:34:28;;;;;;;1.55;1.00;;;23.20;57.90;;;;;;6011530;29;20041;-74
2022/08/21 05:37:29;;;;;;;1.10;0.80;;;23.20;57.90;;;;;;5980501;29;20042;-75
2022/08/21 05:40:31;;;;;;;7.88;1.00;;;23.20;57.90;;;;;;5980004;29;20038;-74
2022/08/21 05:43:35;;;;;;;1.17;0.75;;;23.20;57.90;;;;;;5978924;29;20033;-74
2022/08/21 05:46:37;;;;;;;1.08;0.80;;;23.20;57.90;;;;;;5995746;29;20125;-74
2022/08/21 05:49:38;;;;;;;1.05;0.85;;;23.20;58.00;;;;;;5996402;29;20038;-74
2022/08/21 05:52:39;;;;;;;2.97;0.70;;;23.20;58.00;;;;;;6010123;29;20045;-75
2022/08/21 05:55:41;;;;;;;7.15;0.80;;;23.20;57.90;;;;;;5997224;29;20030;-74
2022/08/21 05:58:42;;;;;;;3.83;0.88;;;23.20;57.90;;;;;;6001456;29;20026;-74
2022/08/21 06:01:45;;;;;;;3.20;0.80;;;23.20;57.80;;;;;;6012880;29;20376;-74
2022/08/21 06:04:47;;;;;;;0.80;0.75;;;23.20;57.80;;;;;;5995544;29;20482;-74
2022/08/21 06:07:48;;;;;;;3.88;0.90;;;23.20;57.70;;;;;;6002254;29;20539;-74
2022/08/21 06:10:51;;;;;;;3.10;0.90;;;23.20;57.70;;;;;;6011160;29;20131;-74
2022/08/21 06:13:53;;;;;;;2.35;0.90;;;23.10;57.70;;;;;;6011519;29;20046;-75
2022/08/21 06:16:54;;;;;;;2.20;1.00;;;23.10;57.80;;;;;;6013875;29;20137;-74
2022/08/21 06:19:55;;;;;;;4.30;0.88;;;23.10;57.80;;;;;;6010253;29;20058;-74
2022/08/21 06:22:56;;;;;;;1.40;0.68;;;23.00;57.80;;;;;;5994611;29;20045;-74
2022/08/21 06:25:57;;;;;;;13.57;1.15;;;22.90;57.80;;;;;;6011158;29;20050;-74
2022/08/21 06:28:58;;;;;;;5.03;0.80;;;22.90;57.90;;;;;;6009150;29;20122;-74
2022/08/21 06:31:59;;;;;;;4.40;1.05;;;22.80;58.00;;;;;;5995158;29;20046;-74
2022/08/21 06:35:00;;;;;;;3.30;0.95;;;22.80;58.10;;;;;;5995108;29;20041;-75
2022/08/21 06:38:02;;;;;;;4.43;1.25;;;22.80;58.10;;;;;;6001715;29;20053;-73
2022/08/21 06:41:04;;;;;;;2.20;0.85;;;22.80;58.20;;;;;;5994009;29;20477;-75
2022/08/21 06:44:05;;;;;;;1.77;0.90;;;22.80;58.20;;;;;;6009856;29;20476;-74
2022/08/21 06:47:06;;;;;;;2.00;1.08;;;22.80;58.20;;;;;;6010558;29;20046;-75
2022/08/21 06:50:08;;;;;;;2.33;1.15;;;22.90;58.10;;;;;;6010369;29;20076;-75
2022/08/21 06:53:11;;;;;;;1.40;0.85;;;22.90;58.10;;;;;;6010878;29;20034;-73
2022/08/21 06:56:13;;;;;;;1.02;0.80;;;22.90;58.00;;;;;;6016983;29;20042;-73
2022/08/21 06:59:14;;;;;;;1.48;0.90;;;23.00;57.90;;;;;;5997099;29;20376;-74
2022/08/21 07:02:15;;;;;;;1.27;0.90;;;23.10;57.90;;;;;;5994174;29;20492;-74
2022/08/21 07:05:17;;;;;;;9.13;3.00;;;23.20;57.70;;;;;;5995426;29;20085;-74
2022/08/21 07:08:19;;;;;;;2.75;1.20;;;23.30;57.50;;;;;;6009978;29;20065;-73
2022/08/21 07:11:23;;;;;;;1.48;1.05;;;23.40;57.30;;;;;;5995934;29;20546;-74
2022/08/21 07:14:24;;;;;;;4.22;1.42;;;23.60;57.00;;;;;;6011233;29;20049;-75
2022/08/21 07:17:25;;;;;;;6.25;1.65;;;23.70;56.70;;;;;;5998821;29;20630;-75
2022/08/21 07:20:29;;;;;;;1.83;1.20;;;23.80;56.50;;;;;;5999604;29;20038;-75
2022/08/21 07:23:39;;;;;;;2.85;1.55;;;23.90;56.40;;;;;;6014210;29;20413;-74
2022/08/21 07:26:42;;;;;;;6.13;1.45;;;24.00;56.20;;;;;;6008882;29;20072;-74
2022/08/21 07:29:43;;;;;;;14.95;1.52;;;24.00;56.00;;;;;;5994043;29;20156;-74
2022/08/21 07:32:44;;;;;;;7.38;1.05;;;24.20;55.80;;;;;;5983147;29;20065;-74
2022/08/21 07:35:45;;;;;;;1.27;0.90;;;24.20;55.60;;;;;;6013689;29;20208;-74
2022/08/21 07:38:47;;;;;;;1.40;1.00;;;24.40;55.30;;;;;;5997596;29;20056;-73
2022/08/21 07:41:48;;;;;;;4.28;1.20;;;24.50;55.00;;;;;;5996314;29;20923;-74
2022/08/21 07:44:49;;;;;;;7.28;1.42;;;24.70;54.80;;;;;;6008177;29;20042;-74
2022/08/21 07:47:50;;;;;;;2.30;1.08;;;24.70;54.40;;;;;;5998333;29;20057;-73
2022/08/21 07:50:51;;;;;;;1.92;0.70;;;24.80;54.30;;;;;;5994693;29;20570;-74
2022/08/21 07:53:55;;;;;;;3.47;1.08;;;24.80;54.10;;;;;;6009169;29;20476;-73
2022/08/21 07:56:56;;;;;;;5.20;1.13;;;24.90;53.90;;;;;;5994756;29;20046;-75
2022/08/21 07:59:57;;;;;;;1.77;1.00;;;24.90;53.80;;;;;;5996990;29;20390;-75
2022/08/21 08:02:58;;;;;;;1.10;0.90;;;24.90;53.60;;;;;;6011932;29;20038;-74
2022/08/21 08:05:59;;;;;;;3.65;1.10;;;24.90;53.60;;;;;;6010521;29;20464;-74
2022/08/21 08:09:03;;;;;;;5.85;1.25;;;25.00;53.50;;;;;;5995904;29;20110;-75
2022/08/21 08:12:04;;;;;;;3.05;1.23;;;25.10;53.20;;;;;;6009355;29;20469;-74
2022/08/21 08:15:09;;;;;;;3.72;1.20;;;25.30;52.90;;;;;;5990258;29;20056;-74
2022/08/21 08:18:10;;;;;;;1.23;0.70;;;25.50;52.70;;;;;;5999998;29;20091;-75
2022/08/21 08:21:13;;;;;;;3.97;1.15;;;25.60;52.20;;;;;;6009842;29;20416;-75
2022/08/21 08:24:14;;;;;;;1.10;0.90;;;25.80;52.00;;;;;;6011627;29;20050;-73
2022/08/21 08:27:16;;;;;;;2.10;0.77;;;26.00;51.60;;;;;;6017075;29;20052;-73
2022/08/21 08:30:19;;;;;;;4.40;1.35;;;26.10;51.20;;;;;;6013592;29;20030;-73
2022/08/21 08:33:20;;;;;;;4.95;0.98;;;26.30;51.00;;;;;;6022368;29;20053;-73
2022/08/21 08:36:33;;;;;;;1.17;1.02;;;26.30;50.80;;;;;;6008889;29;20373;-74
2022/08/21 08:39:34;;;;;;;2.60;1.30;;;26.30;50.50;;;;;;6011312;29;20120;-73
2022/08/21 08:42:36;;;;;;;2.20;1.10;;;26.40;50.30;;;;;;5990527;29;20042;-75
2022/08/21 08:45:40;;;;;;;2.30;1.10;;;26.60;50.10;;;;;;6010516;29;20034;-75
2022/08/21 08:48:54;;;;;;;1.48;1.08;;;26.80;49.90;;;;;;6009787;29;20038;-75
2022/08/21 08:52:18;;;;;;;0.80;0.80;;;26.90;49.60;;;;;;6009702;29;20511;-74
2022/08/21 08:55:27;;;;;;;3.85;1.48;;;26.90;49.40;;;;;;6003141;29;20380;-74
2022/08/21 08:58:39;;;;;;;10.13;1.08;;;27.00;49.20;;;;;;6006946;29;20477;-74
2022/08/21 09:01:41;;;;;;;1.63;0.88;;;27.10;48.90;;;;;;6006742;29;20102;-74
2022/08/21 09:04:45;;;;;;;4.07;1.30;;;27.10;48.60;;;;;;6007907;29;20038;-74
2022/08/21 09:08:20;;;;;;;6.40;1.00;;;27.20;48.50;;;;;;6006933;29;20058;-74
2022/08/21 09:11:54;;;;;;;1.38;1.10;;;27.20;48.40;;;;;;6004279;29;20030;-74
2022/08/21 09:15:12;;;;;;;6.10;1.15;;;27.30;48.20;;;;;;5889883;30;20040;-74
2022/08/21 09:18:25;;;;;;;4.93;1.20;;;27.40;48.10;;;;;;5891043;30;20056;-73
2022/08/21 09:21:53;;;;;;;5.35;1.10;;;27.50;47.90;;;;;;5890464;30;20083;-75
2022/08/21 09:25:26;;;;;;;11.13;0.80;;;27.50;47.60;;;;;;5890351;30;20123;-74
2022/08/21 09:28:30;;;;;;;1.38;0.88;;;27.60;47.30;;;;;;5894522;30;20503;-74
2022/08/21 09:31:37;;;;;;;1.25;0.73;;;27.70;46.90;;;;;;5894803;30;20044;-75
2022/08/21 09:34:38;;;;;;;1.67;1.05;;;27.80;46.80;;;;;;5878070;30;20055;-74
2022/08/21 09:38:02;;;;;;;4.10;1.20;;;27.80;46.80;;;;;;5895331;30;20036;-74
2022/08/21 09:41:05;;;;;;;3.47;1.02;;;27.90;46.60;;;;;;5885874;30;20356;-74
2022/08/21 09:44:08;;;;;;;7.13;1.15;;;28.00;46.40;;;;;;5880299;30;20047;-73
2022/08/21 09:47:13;;;;;;;1.08;0.90;;;28.00;46.30;;;;;;5880741;30;20078;-72
2022/08/21 09:50:23;;;;;;;2.65;0.80;;;28.10;46.20;;;;;;5898866;29;20052;-75
2022/08/21 09:53:28;;;;;;;0.82;0.82;;;28.10;46.00;;;;;;6009458;29;20046;-78
2022/08/21 10:00:27;;;;;;;1.00;0.98;;;28.10;45.80;;;;;;6007792;29;20093;-76
2022/08/21 10:03:28;;;;;;;0.85;0.80;;;28.20;45.80;;;;;;6008459;29;20053;-74
2022/08/21 10:06:29;;;;;;;2.33;1.00;;;28.40;45.70;;;;;;6003964;29;20049;-75
2022/08/21 10:09:31;;;;;;;3.17;1.25;;;28.40;45.50;;;;;;6013102;29;20388;-75
2022/08/21 10:12:50;;;;;;;2.70;1.15;;;28.50;45.40;;;;;;6022347;29;20046;-76
2022/08/21 10:16:14;;;;;;;0.88;0.85;;;28.50;45.30;;;;;;6007476;29;20046;-73
2022/08/21 10:19:33;;;;;;;3.78;1.10;;;28.60;45.10;;;;;;6022030;29;20042;-74
2022/08/21 10:22:59;;;;;;;2.08;0.98;;;28.70;45.00;;;;;;6004274;29;20046;-75
2022/08/21 10:26:20;;;;;;;4.50;1.08;;;28.70;44.90;;;;;;6019802;29;20117;-74
2022/08/21 10:29:38;;;;;;;0.98;0.90;;;28.70;44.70;;;;;;6009754;29;20046;-74
2022/08/21 10:33:20;;;;;;;3.15;1.00;;;28.80;44.80;;;;;;6006726;29;20464;-73
2022/08/21 10:36:46;;;;;;;0.95;0.82;;;28.80;44.70;;;;;;6009549;29;20480;-76
2022/08/21 10:40:04;;;;;;;0.98;0.88;;;29.00;44.30;;;;;;6000988;29;20071;-73
2022/08/21 10:43:26;;;;;;;0.82;0.80;;;29.10;44.20;;;;;;6008589;29;20121;-74
2022/08/21 10:46:58;;;;;;;3.15;0.80;;;29.20;44.10;;;;;;6004103;29;20048;-74
2022/08/21 10:50:12;;;;;;;1.58;0.80;;;29.30;43.90;;;;;;6002366;29;20038;-74
2022/08/21 10:53:36;;;;;;;1.67;1.10;;;29.50;43.50;;;;;;6012606;29;20041;-75
2022/08/21 10:56:41;;;;;;;5.03;1.40;;;29.80;43.00;;;;;;5997173;29;20053;-75
2022/08/21 11:00:00;;;;;;;2.85;1.00;;;30.10;42.10;;;;;;6007049;29;20050;-74
2022/08/21 11:03:21;;;;;;;1.50;1.00;;;30.40;41.60;;;;;;6006291;29;20038;-75
2022/08/21 11:06:27;;;;;;;2.45;0.95;;;30.70;41.10;;;;;;6005349;29;20042;-75
2022/08/21 11:09:28;;;;;;;2.05;0.77;;;31.00;40.60;;;;;;6005823;29;20038;-74
2022/08/21 11:12:53;;;;;;;1.13;0.82;;;31.30;39.90;;;;;;6006265;29;20037;-75
2022/08/21 11:16:04;;;;;;;2.67;0.70;;;31.40;39.30;;;;;;6003578;29;20380;-73
2022/08/21 11:19:36;;;;;;;1.30;0.80;;;31.50;39.10;;;;;;5998012;29;20034;-73
2022/08/21 11:22:54;;;;;;;1.27;0.98;;;31.80;38.60;;;;;;6002797;29;20030;-75
2022/08/21 11:26:06;;;;;;;1.85;0.70;;;32.00;38.10;;;;;;6015287;29;20050;-75
2022/08/21 11:29:24;;;;;;;1.15;0.90;;;32.20;37.60;;;;;;6006839;29;20114;-74
2022/08/21 11:32:53;;;;;;;3.63;0.65;;;32.50;37.20;;;;;;6005310;29;20061;-74
2022/08/21 11:36:09;;;;;;;0.85;0.80;;;32.70;36.30;;;;;;6004669;29;20482;-74
2022/08/21 11:39:44;;;;;;;2.78;1.25;;;32.80;36.30;;;;;;6002714;29;20034;-74
2022/08/21 11:43:11;;;;;;;5.57;0.90;;;32.80;36.20;;;;;;6004480;29;20046;-74
2022/08/21 11:46:48;;;;;;;5.00;1.40;;;32.90;36.00;;;;;;5974657;29;20515;-76
2022/08/21 11:50:14;;;;;;;1.95;1.08;;;33.10;35.70;;;;;;5962412;29;20038;-75
2022/08/21 11:53:31;;;;;;;1.10;0.70;;;33.20;35.10;;;;;;5979201;29;20377;-75
2022/08/21 11:56:40;;;;;;;0.68;0.60;;;33.40;35.40;;;;;;5979042;29;20038;-74
2022/08/21 11:59:46;;;;;;;1.48;0.75;;;33.60;34.30;;;;;;5980098;29;20454;-74
2022/08/21 12:02:55;;;;;;;0.60;0.60;;;33.50;34.20;;;;;;5980968;29;20039;-74
2022/08/21 12:06:05;;;;;;;2.00;0.88;;;33.30;34.40;;;;;;5973473;29;20041;-74
2022/08/21 12:09:10;;;;;;;0.95;0.57;;;33.40;34.60;;;;;;5980375;29;20054;-74
2022/08/21 12:12:33;;;;;;;1.02;0.60;;;33.70;33.90;;;;;;5976796;29;20053;-74
2022/08/21 12:15:34;;;;;;;0.63;0.63;;;34.00;33.50;;;;;;5980789;29;20104;-74
2022/08/21 12:18:39;;;;;;;0.85;0.60;;;34.20;33.00;;;;;;5976922;29;20102;-75
2022/08/21 12:21:53;;;;;;;3.63;0.80;;;34.30;32.80;;;;;;5978745;29;20061;-74
2022/08/21 12:25:06;;;;;;;1.65;0.60;;;34.40;32.30;;;;;;6021679;29;20061;-74
2022/08/21 12:28:14;;;;;;;0.75;0.70;;;34.20;32.40;;;;;;6005004;29;20038;-74
2022/08/21 12:31:25;;;;;;;;;;;34.10;32.50;;;;;;6011632;29;20498;-74
2022/08/21 12:34:56;;;;;;;0.63;0.63;;;34.10;32.60;;;;;;6007022;29;19924;-74
2022/08/21 12:38:21;;;;;;;1.30;0.70;;;34.20;32.00;;;;;;6001921;29;20042;-75
2022/08/21 12:41:28;;;;;;;1.23;0.60;;;34.60;31.60;;;;;;6000123;29;20037;-74
2022/08/21 12:44:34;;;;;;;0.93;0.63;;;35.20;30.70;;;;;;6005047;29;20041;-82
2022/08/21 12:47:55;;;;;;;2.72;0.85;;;35.60;30.20;;;;;;6005908;29;20074;-74
2022/08/21 12:51:07;;;;;;;0.60;0.60;;;35.90;29.80;;;;;;6002182;29;20054;-74
2022/08/21 12:54:08;;;;;;;0.98;0.47;;;35.90;29.70;;;;;;6007623;29;20049;-74
2022/08/21 12:57:24;;;;;;;1.45;0.73;;;35.70;29.60;;;;;;6006329;29;20042;-74
2022/08/21 13:00:29;;;;;;;1.20;0.50;;;35.40;29.80;;;;;;6004056;29;20046;-74
2022/08/21 13:03:34;;;;;;;1.73;0.60;;;35.10;30.00;;;;;;6015618;29;20046;-75
2022/08/21 13:06:46;;;;;;;1.60;0.68;;;34.90;30.00;;;;;;6015619;29;20046;-75
2022/08/21 13:10:15;;;;;;;1.23;0.60;;;34.90;30.00;;;;;;6009073;29;20094;-74
2022/08/21 13:13:23;;;;;;;0.75;0.60;;;35.20;29.90;;;;;;6008948;29;20124;-74
2022/08/21 13:16:28;;;;;;;3.13;0.55;;;36.20;29.00;;;;;;6009276;29;20034;-75
2022/08/21 13:19:29;;;;;;;3.28;0.77;;;36.90;28.10;;;;;;6009875;29;20065;-74
2022/08/21 13:22:31;;;;;;;2.70;0.77;;;37.40;27.50;;;;;;6010392;29;20045;-75
2022/08/21 13:25:37;;;;;;;0.73;0.60;;;38.00;27.00;;;;;;6007895;29;20475;-75
2022/08/21 13:28:38;;;;;;;1.08;0.70;;;38.50;26.60;;;;;;6011017;29;20077;-74
2022/08/21 13:31:42;;;;;;;1.17;0.57;;;39.10;25.90;;;;;;6024602;29;20472;-75
2022/08/21 13:34:43;;;;;;;0.50;0.50;;;39.30;25.40;;;;;;6009697;29;20053;-74
2022/08/21 13:37:47;;;;;;;1.58;0.70;;;39.00;25.60;;;;;;6010584;29;20052;-74
2022/08/21 13:40:56;;;;;;;0.65;0.40;;;38.30;25.90;;;;;;6024621;29;20045;-74
2022/08/21 13:44:01;;;;;;;9.30;0.70;;;37.60;26.50;;;;;;6009663;29;20045;-74
2022/08/21 13:47:04;;;;;;;0.95;0.60;;;37.20;26.90;;;;;;6009781;29;20455;-73
2022/08/21 13:50:07;;;;;;;1.05;0.60;;;37.30;27.00;;;;;;5991438;29;20042;-73
2022/08/21 13:53:27;;;;;;;1.08;0.65;;;37.50;26.70;;;;;;6012418;29;20479;-74
2022/08/21 13:56:41;;;;;;;3.08;0.60;;;37.40;26.70;;;;;;6021287;29;20037;-74
2022/08/21 13:59:43;;;;;;;3.88;0.70;;;36.90;26.80;;;;;;6014151;29;20038;-73
2022/08/21 14:02:52;;;;;;;3.97;0.88;;;36.30;27.40;;;;;;6010556;29;20126;-75
2022/08/21 14:05:53;;;;;;;;;;;36.30;27.40;;;;;;6019734;29;20049;-75
2022/08/21 14:09:01;;;;;;;1.27;0.60;;;36.80;26.90;;;;;;6007158;29;19935;-74
2022/08/21 14:12:29;;;;;;;1.42;0.60;;;36.70;26.90;;;;;;6007743;29;20046;-75
2022/08/21 14:15:33;;;;;;;1.73;0.70;;;36.50;27.10;;;;;;5990477;29;20049;-75
2022/08/21 14:18:44;;;;;;;0.90;0.50;;;36.70;26.70;;;;;;6008858;29;20044;-75
2022/08/21 14:21:48;;;;;;;0.80;0.50;;;37.00;26.40;;;;;;6019199;29;20045;-75
2022/08/21 14:24:58;;;;;;;5.25;0.90;;;37.00;26.20;;;;;;5996959;29;20069;-75
2022/08/21 14:28:06;;;;;;;2.22;0.75;;;36.50;26.70;;;;;;5986052;29;20529;-75
2022/08/21 14:31:29;;;;;;;0.98;0.70;;;35.90;27.20;;;;;;6008533;29;20425;-75
2022/08/21 14:34:30;;;;;;;0.90;0.57;;;35.20;27.80;;;;;;6009071;29;20408;-75
2022/08/21 14:37:32;;;;;;;1.90;0.82;;;34.70;28.20;;;;;;5978506;29;20042;-75
2022/08/21 14:40:33;;;;;;;0.93;0.77;;;34.20;28.80;;;;;;5995119;29;20137;-74
2022/08/21 14:43:34;;;;;;;3.88;0.82;;;33.80;29.30;;;;;;6008573;29;20034;-75
2022/08/21 14:46:36;;;;;;;17.90;2.05;;;33.40;29.60;;;;;;6008706;29;20068;-74
2022/08/21 14:49:37;;;;;;;15.85;1.42;;;33.10;30.00;;;;;;6007883;29;20037;-75
2022/08/21 14:52:39;;;;;;;3.00;0.93;;;32.80;30.50;;;;;;6007351;29;20066;-74
2022/08/21 14:59:05;;;;;;;2.17;0.70;;;32.30;30.70;;;;;;6010066;29;20488;-74
2022/08/21 15:02:08;;;;;;;4.35;0.63;;;32.20;31.00;;;;;;6007429;29;20034;-74
2022/08/21 15:05:09;;;;;;;2.28;0.73;;;32.10;31.10;;;;;;6008040;29;20034;-75
2022/08/21 15:08:10;;;;;;;7.88;1.20;;;32.10;31.30;;;;;;5990483;29;20033;-74
2022/08/21 15:11:21;;;;;;;1.30;0.75;;;32.10;31.30;;;;;;6005469;29;20485;-73
2022/08/21 15:14:30;;;;;;;7.38;1.20;;;32.00;31.30;;;;;;6005830;29;20049;-74
2022/08/21 15:17:31;;;;;;;0.95;0.52;;;31.90;31.40;;;;;;5988272;29;20038;-74
2022/08/21 15:20:33;;;;;;;3.70;0.82;;;31.90;31.60;;;;;;6008034;29;20041;-75
2022/08/21 15:23:34;;;;;;;2.30;0.90;;;31.80;31.70;;;;;;5977115;29;20069;-75
2022/08/21 15:26:36;;;;;;;1.15;0.90;;;31.70;31.70;;;;;;6003753;29;20081;-75
2022/08/21 15:29:37;;;;;;;1.00;0.57;;;31.70;31.80;;;;;;6002863;29;20380;-75
2022/08/21 15:32:39;;;;;;;7.95;1.05;;;31.60;31.70;;;;;;6006955;29;20125;-76
2022/08/21 15:35:40;;;;;;;4.22;0.98;;;31.60;31.80;;;;;;6005774;29;20042;-75
2022/08/21 15:38:41;;;;;;;2.13;0.70;;;31.50;31.80;;;;;;6006847;29;20026;-76
2022/08/21 15:41:43;;;;;;;2.53;0.98;;;31.40;31.80;;;;;;6008200;29;20039;-75
2022/08/21 15:44:45;;;;;;;3.03;0.82;;;31.40;32.00;;;;;;6007621;29;20461;-75
2022/08/21 15:47:49;;;;;;;6.53;1.23;;;31.40;32.00;;;;;;6007055;29;20053;-75
2022/08/21 15:50:50;;;;;;;5.55;0.90;;;31.40;32.00;;;;;;6014228;29;20057;-75
2022/08/21 15:53:51;;;;;;;1.60;0.90;;;31.40;32.10;;;;;;6008162;29;20108;-76
2022/08/21 15:56:52;;;;;;;1.65;0.75;;;31.50;32.00;;;;;;6010661;29;20045;-75
2022/08/21 16:00:02;;;;;;;2.67;0.88;;;31.60;31.80;;;;;;5987460;29;20521;-75
2022/08/21 16:03:17;;;;;;;5.45;0.90;;;31.70;31.70;;;;;;6007527;29;20106;-75
2022/08/21 16:06:18;;;;;;;4.78;1.15;;;31.70;31.60;;;;;;6022903;29;20413;-75
2022/08/21 16:09:20;;;;;;;3.38;0.80;;;31.60;31.70;;;;;;6008239;29;20049;-75
2022/08/21 16:12:32;;;;;;;3.55;0.88;;;31.50;31.90;;;;;;6007584;29;20518;-76
2022/08/21 16:15:33;;;;;;;2.97;0.98;;;31.30;32.00;;;;;;6006129;29;20080;-75
2022/08/21 16:18:34;;;;;;;1.73;1.05;;;31.20;32.00;;;;;;6007598;29;20042;-75